Extreme high temperature From: 16-07-2018 05:00 Until: 19:00 warning for: Extreme high temperature Level: Yellow info button
suomi:
Hellevaroitus: Lähivuorokauden aikana on odotettavissa tukalaa hellettä.

svenska:
Varning för värmebölja: Under det närmaste dygnet är den svåra hettan att vänta.

english:
Heat wave warning: Warm weather is expected during the coming 24 hours. 


Thunder radar more information blitzortung!


Löydät sääaseman tiedot myös:

European Weather Network

Finland Weather Exchange

Weather Underground

AWEKAS



Weather Underground säähistoriasivu

Päivittäin yhteenveto Helmikuu 15, 2017 Yksiköt:  Englantilaiset    Metriset   Molemmat
« Edellinen Päivä
Seuraava Päivä »
Päivittäin Viikoittain Kuukausittain Vuosittain Mukautettu
  Korkea: Matala: Keskiarvo:
Lämpötila: TemperatureC °F -4.7 °F -0.4 °F
Kastepiste: DewpointC °F -5.4 °F -2 °F
Kosteus: Humidity % 79 % 89 %
Tuulen nopeus: WindSpeedKMH mph 0.0 mph 1 mph
Tuulenpuuska: WindSpeedGustKMH mph - -
Tuuli:- - SSW
Ilmanpaine: PressurehPa in 1020.5 in -
Sade: 0.0 in    
Historical Graphs
 
 
Taulukkotiedot Helmikuu 15, 2017
Aika Lämpötila Kastepiste Ilmanpaine Tuuli Tuulen nopeus Tuulenpuuska Kosteus Sademäärä (tunneittain)
TemperatureC °F DewpointC °F PressurehPa in Calm     Humidity % HourlyPrecipMM in
00:00 -2.7 °F -3.4 °F 1030.7 in Calm     95 % 0.0 in
00:15 -2.7 °F -3.4 °F 1030.7 in Calm     95 % 0.0 in
00:45 -3.1 °F -3.7 °F 1031.0 in Calm     95 % 0.0 in
01:00 -3.1 °F -3.8 °F 1031.0 in Calm     95 % 0.0 in
01:15 -3.2 °F -3.9 °F 1031.0 in Calm     95 % 0.0 in
01:30 -3.3 °F -4.0 °F 1031.0 in Calm     95 % 0.0 in
01:45 -3.3 °F -4.0 °F 1031.4 in Calm     95 % 0.0 in
02:00 -3.4 °F -4.1 °F 1031.4 in Calm     95 % 0.0 in
02:15 -3.4 °F -4.1 °F 1031.4 in Calm   3.2 mph 95 % 0.0 in
02:30 -3.3 °F -3.8 °F 1031.4 in Calm     96 % 0.0 in
02:45 -3.3 °F -4.0 °F 1031.7 in Calm     95 % 0.0 in
03:15 -3.7 °F -4.4 °F 1031.7 in Calm     95 % 0.0 in
03:30 -3.8 °F -4.5 °F 1031.4 in Calm     95 % 0.0 in
03:45 -3.9 °F -4.6 °F 1031.7 in Calm     95 % 0.0 in
04:00 -3.9 °F -4.6 °F 1031.4 in Calm     95 % 0.0 in
04:15 -4.1 °F -4.7 °F 1031.7 in Calm     95 % 0.0 in
04:30 -4.1 °F -4.7 °F 1031.4 in Calm     95 % 0.0 in
04:45 -4.2 °F -4.9 °F 1031.7 in Calm     95 % 0.0 in
05:00 -4.2 °F -4.7 °F 1031.7 in Calm     96 % 0.0 in
05:15 -4.1 °F -4.8 °F 1031.7 in Calm     95 % 0.0 in
05:30 -4.3 °F -5.0 °F 1031.7 in Calm     95 % 0.0 in
05:45 -4.4 °F -5.1 °F 1031.7 in Calm     95 % 0.0 in
06:00 -4.6 °F -5.2 °F 1031.7 in Calm     95 % 0.0 in
06:15 -4.7 °F -5.3 °F 1031.4 in Calm   1.6 mph 95 % 0.0 in
06:45 -4.2 °F -4.9 °F 1031.0 in Calm   4.8 mph 95 % 0.0 in
07:00 -4.2 °F -4.7 °F 1031.0 in Calm     96 % 0.0 in
07:15 -4.1 °F -4.8 °F 1030.7 in Calm   1.6 mph 95 % 0.0 in
07:30 -4.1 °F -4.8 °F 1030.7 in Calm   4.8 mph 95 % 0.0 in
07:45 -4.3 °F -5.0 °F 1030.7 in Calm     95 % 0.0 in
08:00 -4.4 °F -5.3 °F 1031.0 in Calm     94 % 0.0 in
08:15 -4.7 °F -5.3 °F 1031.0 in Calm     95 % 0.0 in
08:30 -4.7 °F -5.3 °F 1031.0 in Calm     95 % 0.0 in
08:45 -4.7 °F -5.3 °F 1031.0 in Calm     95 % 0.0 in
09:00 -4.7 °F -5.4 °F 1031.0 in Calm     95 % 0.0 in
09:15 -4.7 °F -5.4 °F 1031.0 in Calm     95 % 0.0 in
09:30 -4.6 °F -5.3 °F 1031.0 in Calm     95 % 0.0 in
09:45 -4.4 °F -5.1 °F 1031.0 in Calm     95 % 0.0 in
10:00 -3.8 °F -4.4 °F 1030.7 in Calm     96 % 0.0 in
10:15 -3.3 °F -3.8 °F 1030.7 in Calm   1.6 mph 96 % 0.0 in
10:45 -2.2 °F -2.6 °F 1030.4 in Calm     97 % 0.0 in
11:00 -1.7 °F -2.1 °F 1030.4 in Calm     97 % 0.0 in
11:15 -1.1 °F -1.5 °F 1030.4 in Calm   1.6 mph 97 % 0.0 in
11:30 -0.4 °F -0.9 °F 1030.4 in WSW 1.6 mph 6.4 mph 96 % 0.0 in
11:45 0.6 °F -0.5 °F 1030.0 in SW 3.2 mph 8.0 mph 92 % 0.0 in
12:00 1.5 °F -0.4 °F 1030.0 in SSW 4.8 mph 11.3 mph 87 % 0.0 in
12:15 2.3 °F -0.3 °F 1029.7 in SSW 6.4 mph 12.9 mph 83 % 0.0 in
12:30 2.7 °F 0.0 °F 1029.7 in SSW 4.8 mph 12.9 mph 82 % 0.0 in
12:45 3.0 °F 0.2 °F 1029.0 in SSW 6.4 mph 11.3 mph 82 % 0.0 in
13:00 3.3 °F 0.6 °F 1029.0 in SSW 6.4 mph 12.9 mph 82 % 0.0 in
13:15 3.6 °F 0.8 °F 1028.7 in SSW 6.4 mph 12.9 mph 82 % 0.0 in
13:30 4.0 °F 1.0 °F 1028.3 in SSW 6.4 mph 11.3 mph 81 % 0.0 in
13:45 4.3 °F 1.3 °F 1028.3 in SSW 4.8 mph 12.9 mph 81 % 0.0 in
14:00 4.4 °F 1.4 °F 1027.7 in SSW 3.2 mph 12.9 mph 81 % 0.0 in
14:15 4.6 °F 1.2 °F 1027.7 in South 3.2 mph 9.7 mph 79 % 0.0 in
14:45 4.3 °F 1.0 °F 1027.0 in Calm   3.2 mph 79 % 0.0 in
15:00 4.1 °F 0.8 °F 1026.6 in South 1.6 mph 11.3 mph 79 % 0.0 in
15:15 4.3 °F 1.0 °F 1026.6 in SSW 1.6 mph 6.4 mph 79 % 0.0 in
15:30 4.2 °F 1.0 °F 1026.3 in South 1.6 mph 8.0 mph 80 % 0.0 in
15:45 3.8 °F 0.9 °F 1026.3 in South 1.6 mph 8.0 mph 81 % 0.0 in
16:00 3.7 °F 0.9 °F 1026.0 in SSE 1.6 mph 3.2 mph 82 % 0.0 in
16:15 3.7 °F 0.9 °F 1025.6 in South 1.6 mph 11.3 mph 82 % 0.0 in
16:30 3.8 °F 1.0 °F 1025.6 in SSW 3.2 mph 11.3 mph 82 % 0.0 in
16:45 3.4 °F 0.7 °F 1025.3 in Calm   6.4 mph 82 % 0.0 in
17:00 3.1 °F 0.5 °F 1025.3 in Calm   4.8 mph 83 % 0.0 in
17:15 2.8 °F 0.3 °F 1024.9 in Calm   3.2 mph 84 % 0.0 in
17:30 2.6 °F 0.3 °F 1024.9 in Calm   4.8 mph 85 % 0.0 in
17:45 2.5 °F 0.2 °F 1024.6 in Calm   1.6 mph 85 % 0.0 in
18:15 2.3 °F 0.1 °F 1024.6 in Calm   1.6 mph 85 % 0.0 in
18:30 2.3 °F 0.2 °F 1024.3 in Calm     86 % 0.0 in
18:45 2.2 °F 0.1 °F 1024.3 in Calm     86 % 0.0 in
19:15 1.9 °F -0.2 °F 1023.6 in Calm     86 % 0.0 in
19:30 1.9 °F 0.0 °F 1023.2 in Calm     87 % 0.0 in
19:45 1.8 °F -0.2 °F 1022.9 in Calm     87 % 0.0 in
20:00 1.7 °F -0.3 °F 1022.9 in Calm     87 % 0.0 in
20:15 1.6 °F -0.2 °F 1022.6 in Calm     88 % 0.0 in
20:30 1.7 °F 0.1 °F 1022.2 in Calm   4.8 mph 89 % 0.0 in
20:45 1.8 °F 0.2 °F 1022.2 in Calm   4.8 mph 89 % 0.0 in
21:00 1.9 °F 0.3 °F 1021.9 in Calm   3.2 mph 89 % 0.0 in
21:15 1.9 °F 0.3 °F 1021.6 in SSW 3.2 mph 12.9 mph 89 % 0.0 in
21:30 1.9 °F 0.2 °F 1021.6 in SSW 8.0 mph 16.1 mph 88 % 0.0 in
21:45 1.9 °F 0.1 °F 1021.6 in SSW 1.6 mph 6.4 mph 88 % 0.0 in
22:00 1.8 °F 0.1 °F 1021.6 in SSW 1.6 mph 8.0 mph 88 % 0.0 in
22:15 1.7 °F -0.2 °F 1021.2 in SSW 1.6 mph 8.0 mph 87 % 0.0 in
22:30 1.6 °F -0.5 °F 1020.9 in SSW 3.2 mph 9.7 mph 86 % 0.0 in
22:45 1.4 °F -0.6 °F 1020.9 in SSW 1.6 mph 9.7 mph 86 % 0.0 in
23:00 1.3 °F -0.8 °F 1020.9 in Calm   6.4 mph 86 % 0.0 in
23:15 1.2 °F -0.9 °F 1020.9 in Calm   3.2 mph 86 % 0.0 in
23:30 1.2 °F -0.9 °F 1020.5 in SSW 1.6 mph 6.4 mph 86 % 0.0 in
23:45 1.2 °F -0.9 °F 1020.5 in SSW 1.6 mph 6.4 mph 86 % 0.0 in
Esan sääasema
Terveisin Weather Underground - 2.75 mb

Alkuperäinen skripti  Jim McMurry - jmcmurry@mwt.net Sovitettu myös templatelle  Wim van der Kuil - Leuven-Template.eu

Laitteet joita käytämme:

Sääasema
Davis VP2

Sääasemaohjelma
Cumulus

Sääaseman tietokone
Asus EeePC

Palveluntarjoaja
Suncomet

Davis VP2

Cumulus

Asus EeePC

Suncomet